sensor_id;sensor_type;location;lat;lon;timestamp;P1;durP1;ratioP1;P2;durP2;ratioP2
28920;SDS011;16035;53.594;9.952;2023-07-28T00:00:37;2.83;;;2.30;;
28920;SDS011;16035;53.594;9.952;2023-07-28T00:02:38;2.67;;;1.97;;
28920;SDS011;16035;53.594;9.952;2023-07-28T00:04:38;2.70;;;2.10;;
28920;SDS011;16035;53.594;9.952;2023-07-28T00:06:38;2.50;;;2.23;;
28920;SDS011;16035;53.594;9.952;2023-07-28T00:08:39;2.37;;;2.07;;
28920;SDS011;16035;53.594;9.952;2023-07-28T00:10:39;2.37;;;2.07;;
28920;SDS011;16035;53.594;9.952;2023-07-28T00:12:41;2.95;;;2.13;;
28920;SDS011;16035;53.594;9.952;2023-07-28T00:14:41;3.50;;;1.90;;
28920;SDS011;16035;53.594;9.952;2023-07-28T00:16:42;3.17;;;2.30;;
28920;SDS011;16035;53.594;9.952;2023-07-28T00:18:42;2.70;;;2.17;;
28920;SDS011;16035;53.594;9.952;2023-07-28T00:20:42;2.67;;;1.90;;
28920;SDS011;16035;53.594;9.952;2023-07-28T00:22:42;2.20;;;1.90;;
28920;SDS011;16035;53.594;9.952;2023-07-28T00:24:43;3.13;;;2.37;;
28920;SDS011;16035;53.594;9.952;2023-07-28T00:26:44;3.03;;;2.10;;
28920;SDS011;16035;53.594;9.952;2023-07-28T00:28:44;3.42;;;2.30;;
28920;SDS011;16035;53.594;9.952;2023-07-28T00:30:48;3.93;;;2.50;;
28920;SDS011;16035;53.594;9.952;2023-07-28T00:32:49;2.45;;;2.17;;
28920;SDS011;16035;53.594;9.952;2023-07-28T00:34:49;3.37;;;2.40;;
28920;SDS011;16035;53.594;9.952;2023-07-28T00:36:50;2.50;;;2.30;;
28920;SDS011;16035;53.594;9.952;2023-07-28T00:38:50;2.53;;;2.27;;
28920;SDS011;16035;53.594;9.952;2023-07-28T00:40:50;3.10;;;2.40;;
28920;SDS011;16035;53.594;9.952;2023-07-28T00:42:51;3.70;;;2.50;;
28920;SDS011;16035;53.594;9.952;2023-07-28T00:44:51;2.60;;;2.40;;
28920;SDS011;16035;53.594;9.952;2023-07-28T00:46:51;3.47;;;1.97;;
28920;SDS011;16035;53.594;9.952;2023-07-28T00:48:52;4.30;;;2.50;;
28920;SDS011;16035;53.594;9.952;2023-07-28T00:50:53;2.27;;;2.07;;
28920;SDS011;16035;53.594;9.952;2023-07-28T00:54:55;2.70;;;2.27;;
28920;SDS011;16035;53.594;9.952;2023-07-28T00:56:55;2.40;;;2.20;;
28920;SDS011;16035;53.594;9.952;2023-07-28T00:58:56;2.63;;;2.20;;
28920;SDS011;16035;53.594;9.952;2023-07-28T01:00:57;3.05;;;2.50;;
28920;SDS011;16035;53.594;9.952;2023-07-28T01:02:57;3.50;;;2.00;;
28920;SDS011;16035;53.594;9.952;2023-07-28T01:04:58;2.43;;;2.17;;
28920;SDS011;16035;53.594;9.952;2023-07-28T01:07:05;3.65;;;2.13;;
28920;SDS011;16035;53.594;9.952;2023-07-28T01:09:11;2.75;;;2.03;;
28920;SDS011;16035;53.594;9.952;2023-07-28T01:11:14;3.20;;;2.08;;
28920;SDS011;16035;53.594;9.952;2023-07-28T01:13:15;1.70;;;1.60;;
28920;SDS011;16035;53.594;9.952;2023-07-28T01:15:15;2.77;;;1.83;;
28920;SDS011;16035;53.594;9.952;2023-07-28T01:17:15;2.30;;;1.90;;
28920;SDS011;16035;53.594;9.952;2023-07-28T01:19:16;3.37;;;2.37;;
28920;SDS011;16035;53.594;9.952;2023-07-28T01:21:22;2.47;;;2.20;;
28920;SDS011;16035;53.594;9.952;2023-07-28T01:26:09;2.90;;;2.15;;
28920;SDS011;16035;53.594;9.952;2023-07-28T01:28:11;1.88;;;1.77;;
28920;SDS011;16035;53.594;9.952;2023-07-28T01:30:13;2.25;;;1.90;;
28920;SDS011;16035;53.594;9.952;2023-07-28T01:32:14;2.60;;;2.00;;
28920;SDS011;16035;53.594;9.952;2023-07-28T01:34:14;2.00;;;1.80;;
28920;SDS011;16035;53.594;9.952;2023-07-28T01:36:14;2.80;;;2.30;;
28920;SDS011;16035;53.594;9.952;2023-07-28T01:38:15;1.93;;;1.83;;
28920;SDS011;16035;53.594;9.952;2023-07-28T01:40:16;2.22;;;1.65;;
28920;SDS011;16035;53.594;9.952;2023-07-28T01:42:17;2.05;;;1.63;;
28920;SDS011;16035;53.594;9.952;2023-07-28T01:44:18;2.53;;;2.10;;
28920;SDS011;16035;53.594;9.952;2023-07-28T01:46:18;2.20;;;1.70;;
28920;SDS011;16035;53.594;9.952;2023-07-28T01:48:18;2.67;;;2.00;;
28920;SDS011;16035;53.594;9.952;2023-07-28T01:50:19;2.33;;;1.67;;
28920;SDS011;16035;53.594;9.952;2023-07-28T01:52:19;3.27;;;1.83;;
28920;SDS011;16035;53.594;9.952;2023-07-28T01:54:19;3.17;;;2.30;;
28920;SDS011;16035;53.594;9.952;2023-07-28T01:56:20;3.13;;;2.33;;
28920;SDS011;16035;53.594;9.952;2023-07-28T01:58:20;2.93;;;2.40;;
28920;SDS011;16035;53.594;9.952;2023-07-28T02:00:20;1.90;;;1.77;;
28920;SDS011;16035;53.594;9.952;2023-07-28T02:02:20;2.70;;;2.40;;
28920;SDS011;16035;53.594;9.952;2023-07-28T02:04:21;3.17;;;2.37;;
28920;SDS011;16035;53.594;9.952;2023-07-28T02:06:21;3.00;;;2.10;;
28920;SDS011;16035;53.594;9.952;2023-07-28T02:08:21;2.57;;;2.00;;
28920;SDS011;16035;53.594;9.952;2023-07-28T02:10:22;2.60;;;2.30;;
28920;SDS011;16035;53.594;9.952;2023-07-28T02:12:23;2.45;;;2.03;;
28920;SDS011;16035;53.594;9.952;2023-07-28T02:14:24;2.77;;;2.20;;
28920;SDS011;16035;53.594;9.952;2023-07-28T02:16:24;2.20;;;1.70;;
28920;SDS011;16035;53.594;9.952;2023-07-28T02:18:27;2.42;;;2.22;;
28920;SDS011;16035;53.594;9.952;2023-07-28T02:20:27;3.17;;;2.07;;
28920;SDS011;16035;53.594;9.952;2023-07-28T02:22:27;2.97;;;2.17;;
28920;SDS011;16035;53.594;9.952;2023-07-28T02:24:28;3.13;;;2.23;;
28920;SDS011;16035;53.594;9.952;2023-07-28T02:26:28;2.70;;;2.23;;
28920;SDS011;16035;53.594;9.952;2023-07-28T02:28:28;3.23;;;2.40;;
28920;SDS011;16035;53.594;9.952;2023-07-28T02:30:29;4.50;;;2.93;;
28920;SDS011;16035;53.594;9.952;2023-07-28T02:32:29;3.53;;;3.23;;
28920;SDS011;16035;53.594;9.952;2023-07-28T02:34:29;3.77;;;3.37;;
28920;SDS011;16035;53.594;9.952;2023-07-28T02:36:30;5.60;;;3.30;;
28920;SDS011;16035;53.594;9.952;2023-07-28T02:38:31;3.95;;;3.30;;
28920;SDS011;16035;53.594;9.952;2023-07-28T02:40:32;5.53;;;3.57;;
28920;SDS011;16035;53.594;9.952;2023-07-28T02:44:35;4.18;;;3.33;;
28920;SDS011;16035;53.594;9.952;2023-07-28T02:46:35;4.13;;;2.80;;
28920;SDS011;16035;53.594;9.952;2023-07-28T02:50:37;4.83;;;3.70;;
28920;SDS011;16035;53.594;9.952;2023-07-28T02:52:37;3.80;;;3.20;;
28920;SDS011;16035;53.594;9.952;2023-07-28T02:54:37;5.80;;;3.57;;
28920;SDS011;16035;53.594;9.952;2023-07-28T02:56:38;3.67;;;3.00;;
28920;SDS011;16035;53.594;9.952;2023-07-28T02:58:38;3.90;;;2.93;;
28920;SDS011;16035;53.594;9.952;2023-07-28T03:00:39;2.53;;;2.03;;
28920;SDS011;16035;53.594;9.952;2023-07-28T03:02:40;2.92;;;2.63;;
28920;SDS011;16035;53.594;9.952;2023-07-28T03:04:40;6.30;;;3.07;;
28920;SDS011;16035;53.594;9.952;2023-07-28T03:06:41;4.63;;;3.17;;
28920;SDS011;16035;53.594;9.952;2023-07-28T03:08:41;3.93;;;3.10;;
28920;SDS011;16035;53.594;9.952;2023-07-28T03:10:41;3.70;;;2.97;;
28920;SDS011;16035;53.594;9.952;2023-07-28T03:12:42;4.03;;;2.60;;
28920;SDS011;16035;53.594;9.952;2023-07-28T03:14:42;2.97;;;2.40;;
28920;SDS011;16035;53.594;9.952;2023-07-28T03:16:42;3.80;;;2.60;;
28920;SDS011;16035;53.594;9.952;2023-07-28T03:18:43;3.20;;;2.67;;
28920;SDS011;16035;53.594;9.952;2023-07-28T03:20:43;3.07;;;2.47;;
28920;SDS011;16035;53.594;9.952;2023-07-28T03:22:43;2.70;;;1.83;;
28920;SDS011;16035;53.594;9.952;2023-07-28T03:24:44;1.90;;;1.80;;
28920;SDS011;16035;53.594;9.952;2023-07-28T03:26:46;2.30;;;2.10;;
28920;SDS011;16035;53.594;9.952;2023-07-28T03:28:46;2.20;;;2.00;;
28920;SDS011;16035;53.594;9.952;2023-07-28T03:30:46;2.20;;;2.00;;
28920;SDS011;16035;53.594;9.952;2023-07-28T03:32:47;4.50;;;2.50;;
28920;SDS011;16035;53.594;9.952;2023-07-28T03:34:47;5.23;;;2.27;;
28920;SDS011;16035;53.594;9.952;2023-07-28T03:36:47;2.80;;;2.60;;
28920;SDS011;16035;53.594;9.952;2023-07-28T03:38:48;2.33;;;2.13;;
28920;SDS011;16035;53.594;9.952;2023-07-28T03:40:48;2.20;;;1.90;;
28920;SDS011;16035;53.594;9.952;2023-07-28T03:42:48;2.40;;;1.90;;
28920;SDS011;16035;53.594;9.952;2023-07-28T03:44:49;2.10;;;1.90;;
28920;SDS011;16035;53.594;9.952;2023-07-28T03:46:49;2.67;;;2.00;;
28920;SDS011;16035;53.594;9.952;2023-07-28T03:48:49;4.33;;;1.80;;
28920;SDS011;16035;53.594;9.952;2023-07-28T03:50:50;2.50;;;2.00;;
28920;SDS011;16035;53.594;9.952;2023-07-28T03:52:50;2.33;;;1.87;;
28920;SDS011;16035;53.594;9.952;2023-07-28T03:54:50;2.57;;;2.07;;
28920;SDS011;16035;53.594;9.952;2023-07-28T03:56:51;2.73;;;1.93;;
28920;SDS011;16035;53.594;9.952;2023-07-28T03:58:51;1.67;;;1.57;;
28920;SDS011;16035;53.594;9.952;2023-07-28T04:00:53;2.20;;;1.83;;
28920;SDS011;16035;53.594;9.952;2023-07-28T04:02:53;2.20;;;2.00;;
28920;SDS011;16035;53.594;9.952;2023-07-28T04:04:54;3.67;;;1.87;;
28920;SDS011;16035;53.594;9.952;2023-07-28T04:06:55;2.13;;;1.85;;
28920;SDS011;16035;53.594;9.952;2023-07-28T04:08:55;2.23;;;1.77;;
28920;SDS011;16035;53.594;9.952;2023-07-28T04:10:55;2.80;;;2.00;;
28920;SDS011;16035;53.594;9.952;2023-07-28T04:12:56;2.43;;;2.23;;
28920;SDS011;16035;53.594;9.952;2023-07-28T04:14:56;2.87;;;2.20;;
28920;SDS011;16035;53.594;9.952;2023-07-28T04:16:56;2.77;;;2.17;;
28920;SDS011;16035;53.594;9.952;2023-07-28T04:18:57;2.57;;;2.10;;
28920;SDS011;16035;53.594;9.952;2023-07-28T04:20:57;2.35;;;2.10;;
28920;SDS011;16035;53.594;9.952;2023-07-28T04:22:58;2.13;;;1.83;;
28920;SDS011;16035;53.594;9.952;2023-07-28T04:24:58;1.87;;;1.73;;
28920;SDS011;16035;53.594;9.952;2023-07-28T04:26:58;2.20;;;2.00;;
28920;SDS011;16035;53.594;9.952;2023-07-28T04:28:59;2.50;;;2.30;;
28920;SDS011;16035;53.594;9.952;2023-07-28T04:30:59;2.50;;;2.30;;
28920;SDS011;16035;53.594;9.952;2023-07-28T04:32:59;3.10;;;1.70;;
28920;SDS011;16035;53.594;9.952;2023-07-28T04:35:00;2.43;;;2.03;;
28920;SDS011;16035;53.594;9.952;2023-07-28T04:37:00;2.53;;;2.33;;
28920;SDS011;16035;53.594;9.952;2023-07-28T04:39:00;2.87;;;2.57;;
28920;SDS011;16035;53.594;9.952;2023-07-28T04:41:01;3.23;;;2.63;;
28920;SDS011;16035;53.594;9.952;2023-07-28T04:43:01;2.77;;;2.40;;
28920;SDS011;16035;53.594;9.952;2023-07-28T04:45:02;4.27;;;2.83;;
28920;SDS011;16035;53.594;9.952;2023-07-28T04:47:03;2.85;;;2.60;;
28920;SDS011;16035;53.594;9.952;2023-07-28T04:49:03;2.40;;;2.20;;
28920;SDS011;16035;53.594;9.952;2023-07-28T04:51:04;2.60;;;2.40;;
28920;SDS011;16035;53.594;9.952;2023-07-28T04:53:04;3.47;;;2.47;;
28920;SDS011;16035;53.594;9.952;2023-07-28T04:55:04;2.60;;;2.40;;
28920;SDS011;16035;53.594;9.952;2023-07-28T04:57:05;3.23;;;2.83;;
28920;SDS011;16035;53.594;9.952;2023-07-28T04:59:05;2.57;;;2.37;;
28920;SDS011;16035;53.594;9.952;2023-07-28T05:01:06;2.88;;;2.50;;
28920;SDS011;16035;53.594;9.952;2023-07-28T05:03:09;2.70;;;2.50;;
28920;SDS011;16035;53.594;9.952;2023-07-28T05:05:09;3.13;;;2.63;;
28920;SDS011;16035;53.594;9.952;2023-07-28T05:07:09;2.93;;;2.50;;
28920;SDS011;16035;53.594;9.952;2023-07-28T05:09:10;2.97;;;2.63;;
28920;SDS011;16035;53.594;9.952;2023-07-28T05:11:10;3.03;;;2.73;;
28920;SDS011;16035;53.594;9.952;2023-07-28T05:13:10;4.03;;;2.43;;
28920;SDS011;16035;53.594;9.952;2023-07-28T05:15:10;2.83;;;2.33;;
28920;SDS011;16035;53.594;9.952;2023-07-28T05:17:11;2.60;;;2.27;;
28920;SDS011;16035;53.594;9.952;2023-07-28T05:19:11;2.60;;;2.40;;
28920;SDS011;16035;53.594;9.952;2023-07-28T05:21:12;2.85;;;2.42;;
28920;SDS011;16035;53.594;9.952;2023-07-28T05:23:12;2.93;;;2.60;;
28920;SDS011;16035;53.594;9.952;2023-07-28T05:25:13;2.87;;;2.47;;
28920;SDS011;16035;53.594;9.952;2023-07-28T05:27:14;3.17;;;2.73;;
28920;SDS011;16035;53.594;9.952;2023-07-28T05:29:14;3.17;;;2.88;;
28920;SDS011;16035;53.594;9.952;2023-07-28T05:31:15;3.23;;;2.57;;
28920;SDS011;16035;53.594;9.952;2023-07-28T05:33:15;2.83;;;2.50;;
28920;SDS011;16035;53.594;9.952;2023-07-28T05:35:15;3.67;;;2.77;;
28920;SDS011;16035;53.594;9.952;2023-07-28T05:37:16;3.57;;;2.90;;
28920;SDS011;16035;53.594;9.952;2023-07-28T05:39:16;2.77;;;2.50;;
28920;SDS011;16035;53.594;9.952;2023-07-28T05:41:17;3.30;;;2.90;;
28920;SDS011;16035;53.594;9.952;2023-07-28T05:43:17;3.27;;;2.97;;
28920;SDS011;16035;53.594;9.952;2023-07-28T05:45:17;5.97;;;3.63;;
28920;SDS011;16035;53.594;9.952;2023-07-28T05:47:18;4.27;;;3.47;;
28920;SDS011;16035;53.594;9.952;2023-07-28T05:49:18;3.60;;;3.13;;
28920;SDS011;16035;53.594;9.952;2023-07-28T05:51:18;3.60;;;3.10;;
28920;SDS011;16035;53.594;9.952;2023-07-28T05:53:22;3.43;;;2.93;;
28920;SDS011;16035;53.594;9.952;2023-07-28T05:55:22;3.97;;;3.25;;
28920;SDS011;16035;53.594;9.952;2023-07-28T05:57:23;3.93;;;3.03;;
28920;SDS011;16035;53.594;9.952;2023-07-28T05:59:23;3.23;;;2.63;;
28920;SDS011;16035;53.594;9.952;2023-07-28T06:01:23;4.83;;;3.37;;
28920;SDS011;16035;53.594;9.952;2023-07-28T06:03:26;3.60;;;3.00;;
28920;SDS011;16035;53.594;9.952;2023-07-28T06:05:29;2.97;;;2.63;;
28920;SDS011;16035;53.594;9.952;2023-07-28T06:07:29;3.27;;;2.67;;
28920;SDS011;16035;53.594;9.952;2023-07-28T06:09:29;3.00;;;2.43;;
28920;SDS011;16035;53.594;9.952;2023-07-28T06:11:30;3.87;;;2.60;;
28920;SDS011;16035;53.594;9.952;2023-07-28T06:13:30;2.60;;;2.30;;
28920;SDS011;16035;53.594;9.952;2023-07-28T06:15:30;3.13;;;2.70;;
28920;SDS011;16035;53.594;9.952;2023-07-28T06:17:31;2.07;;;1.90;;
28920;SDS011;16035;53.594;9.952;2023-07-28T06:19:31;2.83;;;2.53;;
28920;SDS011;16035;53.594;9.952;2023-07-28T06:21:31;2.80;;;2.40;;
28920;SDS011;16035;53.594;9.952;2023-07-28T06:23:32;2.83;;;2.50;;
28920;SDS011;16035;53.594;9.952;2023-07-28T06:25:32;3.63;;;2.70;;
28920;SDS011;16035;53.594;9.952;2023-07-28T06:27:32;3.37;;;2.57;;
28920;SDS011;16035;53.594;9.952;2023-07-28T06:29:33;2.53;;;2.33;;
28920;SDS011;16035;53.594;9.952;2023-07-28T06:31:33;3.37;;;2.60;;
28920;SDS011;16035;53.594;9.952;2023-07-28T06:33:34;2.63;;;2.37;;
28920;SDS011;16035;53.594;9.952;2023-07-28T06:35:34;3.13;;;2.53;;
28920;SDS011;16035;53.594;9.952;2023-07-28T06:37:36;2.50;;;2.20;;
28920;SDS011;16035;53.594;9.952;2023-07-28T06:39:37;3.92;;;2.30;;
28920;SDS011;16035;53.594;9.952;2023-07-28T06:41:37;2.40;;;2.17;;
28920;SDS011;16035;53.594;9.952;2023-07-28T06:43:38;3.30;;;2.57;;
28920;SDS011;16035;53.594;9.952;2023-07-28T06:45:38;2.97;;;2.67;;
28920;SDS011;16035;53.594;9.952;2023-07-28T06:47:38;2.70;;;2.30;;
28920;SDS011;16035;53.594;9.952;2023-07-28T06:49:39;2.40;;;2.20;;
28920;SDS011;16035;53.594;9.952;2023-07-28T06:51:39;2.40;;;2.20;;
28920;SDS011;16035;53.594;9.952;2023-07-28T06:53:39;5.23;;;3.13;;
28920;SDS011;16035;53.594;9.952;2023-07-28T06:55:40;3.67;;;3.23;;
28920;SDS011;16035;53.594;9.952;2023-07-28T06:57:40;4.27;;;3.87;;
28920;SDS011;16035;53.594;9.952;2023-07-28T06:59:41;4.37;;;3.73;;
28920;SDS011;16035;53.594;9.952;2023-07-28T07:01:42;3.42;;;3.13;;
28920;SDS011;16035;53.594;9.952;2023-07-28T07:03:42;3.33;;;3.03;;
28920;SDS011;16035;53.594;9.952;2023-07-28T07:05:43;4.03;;;3.63;;
28920;SDS011;16035;53.594;9.952;2023-07-28T07:07:43;3.35;;;3.05;;
28920;SDS011;16035;53.594;9.952;2023-07-28T07:09:44;3.10;;;2.80;;
28920;SDS011;16035;53.594;9.952;2023-07-28T07:11:45;3.40;;;3.08;;
28920;SDS011;16035;53.594;9.952;2023-07-28T07:13:45;4.63;;;3.53;;
28920;SDS011;16035;53.594;9.952;2023-07-28T07:15:45;4.03;;;3.20;;
28920;SDS011;16035;53.594;9.952;2023-07-28T07:17:46;3.20;;;2.90;;
28920;SDS011;16035;53.594;9.952;2023-07-28T07:19:46;3.27;;;2.93;;
28920;SDS011;16035;53.594;9.952;2023-07-28T07:21:47;3.70;;;3.30;;
28920;SDS011;16035;53.594;9.952;2023-07-28T07:23:49;7.25;;;2.67;;
28920;SDS011;16035;53.594;9.952;2023-07-28T07:25:49;3.10;;;2.80;;
28920;SDS011;16035;53.594;9.952;2023-07-28T07:27:50;3.20;;;2.90;;
28920;SDS011;16035;53.594;9.952;2023-07-28T07:29:50;3.10;;;2.80;;
28920;SDS011;16035;53.594;9.952;2023-07-28T07:33:55;3.35;;;3.00;;
28920;SDS011;16035;53.594;9.952;2023-07-28T07:35:56;4.57;;;3.17;;
28920;SDS011;16035;53.594;9.952;2023-07-28T07:37:56;3.30;;;3.00;;
28920;SDS011;16035;53.594;9.952;2023-07-28T07:39:56;3.03;;;2.73;;
28920;SDS011;16035;53.594;9.952;2023-07-28T07:41:57;3.17;;;2.63;;
28920;SDS011;16035;53.594;9.952;2023-07-28T07:43:57;3.17;;;2.88;;
28920;SDS011;16035;53.594;9.952;2023-07-28T07:45:58;4.97;;;3.93;;
28920;SDS011;16035;53.594;9.952;2023-07-28T07:47:58;7.07;;;4.80;;
28920;SDS011;16035;53.594;9.952;2023-07-28T07:49:59;3.33;;;2.80;;
28920;SDS011;16035;53.594;9.952;2023-07-28T07:54:00;3.40;;;2.43;;
28920;SDS011;16035;53.594;9.952;2023-07-28T07:56:04;2.88;;;2.60;;
28920;SDS011;16035;53.594;9.952;2023-07-28T07:58:04;2.85;;;2.60;;
28920;SDS011;16035;53.594;9.952;2023-07-28T08:00:05;2.50;;;2.30;;
28920;SDS011;16035;53.594;9.952;2023-07-28T08:02:06;2.30;;;2.10;;
28920;SDS011;16035;53.594;9.952;2023-07-28T08:04:07;2.23;;;2.03;;
28920;SDS011;16035;53.594;9.952;2023-07-28T08:06:08;2.75;;;2.10;;
28920;SDS011;16035;53.594;9.952;2023-07-28T08:08:11;2.53;;;2.17;;
28920;SDS011;16035;53.594;9.952;2023-07-28T08:10:11;2.50;;;2.30;;
28920;SDS011;16035;53.594;9.952;2023-07-28T08:12:12;2.63;;;2.43;;
28920;SDS011;16035;53.594;9.952;2023-07-28T08:16:14;2.77;;;2.27;;
28920;SDS011;16035;53.594;9.952;2023-07-28T08:18:14;3.03;;;2.73;;
28920;SDS011;16035;53.594;9.952;2023-07-28T08:20:14;2.73;;;2.37;;
28920;SDS011;16035;53.594;9.952;2023-07-28T08:22:15;2.50;;;2.30;;
28920;SDS011;16035;53.594;9.952;2023-07-28T08:24:15;2.33;;;2.13;;
28920;SDS011;16035;53.594;9.952;2023-07-28T08:26:16;2.30;;;1.90;;
28920;SDS011;16035;53.594;9.952;2023-07-28T08:28:16;2.57;;;2.17;;
28920;SDS011;16035;53.594;9.952;2023-07-28T08:30:16;2.47;;;2.20;;
28920;SDS011;16035;53.594;9.952;2023-07-28T08:32:17;2.40;;;2.10;;
28920;SDS011;16035;53.594;9.952;2023-07-28T08:34:17;2.27;;;2.03;;
28920;SDS011;16035;53.594;9.952;2023-07-28T08:36:17;2.13;;;1.93;;
28920;SDS011;16035;53.594;9.952;2023-07-28T08:38:18;2.57;;;2.00;;
28920;SDS011;16035;53.594;9.952;2023-07-28T08:40:18;1.70;;;1.60;;
28920;SDS011;16035;53.594;9.952;2023-07-28T08:42:20;1.83;;;1.67;;
28920;SDS011;16035;53.594;9.952;2023-07-28T08:44:20;2.28;;;2.08;;
28920;SDS011;16035;53.594;9.952;2023-07-28T08:46:21;1.63;;;1.52;;
28920;SDS011;16035;53.594;9.952;2023-07-28T08:48:21;2.27;;;1.90;;
28920;SDS011;16035;53.594;9.952;2023-07-28T08:50:22;2.10;;;1.90;;
28920;SDS011;16035;53.594;9.952;2023-07-28T08:52:22;2.45;;;2.03;;
28920;SDS011;16035;53.594;9.952;2023-07-28T08:54:24;2.13;;;2.00;;
28920;SDS011;16035;53.594;9.952;2023-07-28T08:56:24;2.93;;;2.00;;
28920;SDS011;16035;53.594;9.952;2023-07-28T08:58:24;3.60;;;1.90;;
28920;SDS011;16035;53.594;9.952;2023-07-28T09:00:25;2.20;;;1.93;;
28920;SDS011;16035;53.594;9.952;2023-07-28T09:02:25;3.03;;;1.93;;
28920;SDS011;16035;53.594;9.952;2023-07-28T09:04:27;2.55;;;2.08;;
28920;SDS011;16035;53.594;9.952;2023-07-28T09:06:30;2.30;;;1.98;;
28920;SDS011;16035;53.594;9.952;2023-07-28T09:08:31;2.50;;;2.30;;
28920;SDS011;16035;53.594;9.952;2023-07-28T09:10:47;2.40;;;1.83;;
28920;SDS011;16035;53.594;9.952;2023-07-28T09:12:49;2.60;;;2.40;;
28920;SDS011;16035;53.594;9.952;2023-07-28T09:14:55;1.90;;;1.70;;
28920;SDS011;16035;53.594;9.952;2023-07-28T09:17:04;2.17;;;1.95;;
28920;SDS011;16035;53.594;9.952;2023-07-28T09:19:06;2.05;;;1.80;;
28920;SDS011;16035;53.594;9.952;2023-07-28T09:23:15;2.30;;;2.10;;
28920;SDS011;16035;53.594;9.952;2023-07-28T09:25:16;2.30;;;1.83;;
28920;SDS011;16035;53.594;9.952;2023-07-28T09:27:20;2.10;;;1.90;;
28920;SDS011;16035;53.594;9.952;2023-07-28T09:29:22;2.50;;;1.85;;
28920;SDS011;16035;53.594;9.952;2023-07-28T09:31:30;1.70;;;1.60;;
28920;SDS011;16035;53.594;9.952;2023-07-28T09:33:33;1.45;;;1.35;;
28920;SDS011;16035;53.594;9.952;2023-07-28T09:35:34;1.50;;;1.40;;
28920;SDS011;16035;53.594;9.952;2023-07-28T09:37:48;2.00;;;1.80;;
28920;SDS011;16035;53.594;9.952;2023-07-28T09:39:50;3.55;;;1.80;;
28920;SDS011;16035;53.594;9.952;2023-07-28T09:41:51;2.38;;;1.80;;
28920;SDS011;16035;53.594;9.952;2023-07-28T09:43:51;2.50;;;1.90;;
28920;SDS011;16035;53.594;9.952;2023-07-28T09:45:53;2.08;;;1.90;;
28920;SDS011;16035;53.594;9.952;2023-07-28T09:47:56;1.90;;;1.80;;
28920;SDS011;16035;53.594;9.952;2023-07-28T09:49:58;2.33;;;1.50;;
28920;SDS011;16035;53.594;9.952;2023-07-28T09:52:08;1.90;;;1.65;;
28920;SDS011;16035;53.594;9.952;2023-07-28T09:54:12;1.80;;;1.55;;
28920;SDS011;16035;53.594;9.952;2023-07-28T09:56:29;2.25;;;1.60;;
28920;SDS011;16035;53.594;9.952;2023-07-28T09:58:30;2.17;;;1.92;;
28920;SDS011;16035;53.594;9.952;2023-07-28T10:00:36;2.58;;;2.05;;
28920;SDS011;16035;53.594;9.952;2023-07-28T10:02:38;1.90;;;1.60;;
28920;SDS011;16035;53.594;9.952;2023-07-28T10:06:40;1.23;;;1.20;;
28920;SDS011;16035;53.594;9.952;2023-07-28T10:08:40;1.77;;;1.60;;
28920;SDS011;16035;53.594;9.952;2023-07-28T10:10:43;1.30;;;1.20;;
28920;SDS011;16035;53.594;9.952;2023-07-28T10:12:49;1.40;;;1.30;;
28920;SDS011;16035;53.594;9.952;2023-07-28T10:14:59;1.98;;;1.80;;
28920;SDS011;16035;53.594;9.952;2023-07-28T10:17:02;1.37;;;1.27;;
28920;SDS011;16035;53.594;9.952;2023-07-28T10:19:06;1.30;;;1.20;;
28920;SDS011;16035;53.594;9.952;2023-07-28T10:21:15;1.50;;;1.30;;
28920;SDS011;16035;53.594;9.952;2023-07-28T10:23:17;1.45;;;1.30;;
28920;SDS011;16035;53.594;9.952;2023-07-28T10:25:22;3.17;;;1.52;;
28920;SDS011;16035;53.594;9.952;2023-07-28T10:29:36;1.67;;;1.30;;
28920;SDS011;16035;53.594;9.952;2023-07-28T10:31:49;2.15;;;1.10;;
28920;SDS011;16035;53.594;9.952;2023-07-28T10:33:53;2.15;;;1.30;;
28920;SDS011;16035;53.594;9.952;2023-07-28T10:35:54;1.90;;;1.60;;
28920;SDS011;16035;53.594;9.952;2023-07-28T10:37:54;1.67;;;1.40;;
28920;SDS011;16035;53.594;9.952;2023-07-28T10:42:30;2.22;;;1.38;;
28920;SDS011;16035;53.594;9.952;2023-07-28T10:44:31;1.77;;;1.35;;
28920;SDS011;16035;53.594;9.952;2023-07-28T10:46:34;1.73;;;1.55;;
28920;SDS011;16035;53.594;9.952;2023-07-28T10:48:35;1.52;;;1.35;;
28920;SDS011;16035;53.594;9.952;2023-07-28T10:50:37;1.85;;;1.38;;
28920;SDS011;16035;53.594;9.952;2023-07-28T10:52:41;1.33;;;1.20;;
28920;SDS011;16035;53.594;9.952;2023-07-28T10:54:42;1.58;;;1.40;;
28920;SDS011;16035;53.594;9.952;2023-07-28T10:56:42;2.10;;;1.30;;
28920;SDS011;16035;53.594;9.952;2023-07-28T10:58:43;1.77;;;1.53;;
28920;SDS011;16035;53.594;9.952;2023-07-28T11:00:43;1.60;;;1.40;;
28920;SDS011;16035;53.594;9.952;2023-07-28T11:02:47;0.90;;;0.90;;
28920;SDS011;16035;53.594;9.952;2023-07-28T11:04:49;1.85;;;1.52;;
28920;SDS011;16035;53.594;9.952;2023-07-28T11:06:50;2.37;;;1.30;;
28920;SDS011;16035;53.594;9.952;2023-07-28T11:08:51;1.77;;;1.10;;
28920;SDS011;16035;53.594;9.952;2023-07-28T11:10:52;1.30;;;1.20;;
28920;SDS011;16035;53.594;9.952;2023-07-28T11:12:52;1.37;;;1.27;;
28920;SDS011;16035;53.594;9.952;2023-07-28T11:14:53;1.65;;;1.27;;
28920;SDS011;16035;53.594;9.952;2023-07-28T11:16:54;2.88;;;1.10;;
28920;SDS011;16035;53.594;9.952;2023-07-28T11:18:55;2.17;;;1.83;;
28920;SDS011;16035;53.594;9.952;2023-07-28T11:20:57;1.67;;;1.50;;
28920;SDS011;16035;53.594;9.952;2023-07-28T11:22:58;1.40;;;1.30;;
28920;SDS011;16035;53.594;9.952;2023-07-28T11:25:00;2.33;;;1.60;;
28920;SDS011;16035;53.594;9.952;2023-07-28T11:27:00;1.33;;;1.20;;
28920;SDS011;16035;53.594;9.952;2023-07-28T11:29:02;1.58;;;1.33;;
28920;SDS011;16035;53.594;9.952;2023-07-28T11:33:03;1.37;;;1.27;;
28920;SDS011;16035;53.594;9.952;2023-07-28T11:37:06;1.67;;;1.50;;
28920;SDS011;16035;53.594;9.952;2023-07-28T11:39:08;1.30;;;1.20;;
28920;SDS011;16035;53.594;9.952;2023-07-28T11:41:10;1.08;;;0.98;;
28920;SDS011;16035;53.594;9.952;2023-07-28T11:43:11;4.20;;;1.00;;
28920;SDS011;16035;53.594;9.952;2023-07-28T11:45:12;1.08;;;1.00;;
28920;SDS011;16035;53.594;9.952;2023-07-28T11:47:17;0.90;;;0.90;;
28920;SDS011;16035;53.594;9.952;2023-07-28T11:49:19;1.92;;;1.10;;
28920;SDS011;16035;53.594;9.952;2023-07-28T11:51:23;1.58;;;1.30;;
28920;SDS011;16035;53.594;9.952;2023-07-28T11:53:23;1.37;;;1.10;;
28920;SDS011;16035;53.594;9.952;2023-07-28T11:55:25;1.52;;;1.33;;
28920;SDS011;16035;53.594;9.952;2023-07-28T11:57:26;1.75;;;1.38;;
28920;SDS011;16035;53.594;9.952;2023-07-28T11:59:27;1.73;;;1.63;;
28920;SDS011;16035;53.594;9.952;2023-07-28T12:01:28;1.47;;;1.10;;
28920;SDS011;16035;53.594;9.952;2023-07-28T12:03:29;1.13;;;1.03;;
28920;SDS011;16035;53.594;9.952;2023-07-28T12:05:30;1.15;;;0.95;;
28920;SDS011;16035;53.594;9.952;2023-07-28T12:07:31;1.33;;;1.23;;
28920;SDS011;16035;53.594;9.952;2023-07-28T12:11:57;1.35;;;1.20;;
28920;SDS011;16035;53.594;9.952;2023-07-28T12:13:58;2.80;;;1.05;;
28920;SDS011;16035;53.594;9.952;2023-07-28T12:22:06;1.25;;;1.15;;
28920;SDS011;16035;53.594;9.952;2023-07-28T12:24:07;1.73;;;1.30;;
28920;SDS011;16035;53.594;9.952;2023-07-28T12:26:08;1.47;;;1.20;;
28920;SDS011;16035;53.594;9.952;2023-07-28T12:28:08;0.83;;;0.83;;
28920;SDS011;16035;53.594;9.952;2023-07-28T12:30:09;1.37;;;1.10;;
28920;SDS011;16035;53.594;9.952;2023-07-28T12:34:10;1.00;;;0.90;;
28920;SDS011;16035;53.594;9.952;2023-07-28T12:36:11;2.10;;;1.10;;
28920;SDS011;16035;53.594;9.952;2023-07-28T12:38:11;1.67;;;1.03;;
28920;SDS011;16035;53.594;9.952;2023-07-28T12:40:11;1.33;;;1.00;;
28920;SDS011;16035;53.594;9.952;2023-07-28T12:42:12;1.20;;;1.10;;
28920;SDS011;16035;53.594;9.952;2023-07-28T12:44:12;1.20;;;1.10;;
28920;SDS011;16035;53.594;9.952;2023-07-28T12:46:13;1.40;;;1.20;;
28920;SDS011;16035;53.594;9.952;2023-07-28T12:48:13;1.57;;;0.90;;